createdAt,value
2018-07-08T00:01:41.542Z,99517.34
2018-07-08T00:04:09.348Z,99511.80
2018-07-08T00:06:41.565Z,99512.11
2018-07-08T00:09:10.074Z,99511.88
2018-07-08T00:11:37.854Z,99519.52
2018-07-08T00:14:05.882Z,99516.63
2018-07-08T00:16:34.193Z,99513.22
2018-07-08T00:19:01.955Z,99511.08
2018-07-08T00:21:30.774Z,99516.62
2018-07-08T00:23:58.528Z,99512.95
2018-07-08T00:26:26.231Z,99505.04
2018-07-08T00:28:54.228Z,99508.75
2018-07-08T00:31:22.671Z,99506.11
2018-07-08T00:33:50.391Z,99503.98
2018-07-08T00:36:19.844Z,99503.47
2018-07-08T00:38:49.511Z,99510.84
2018-07-08T00:41:17.255Z,99505.59
2018-07-08T00:43:46.658Z,99510.31
2018-07-08T00:46:14.698Z,99507.67
2018-07-08T00:48:42.421Z,99504.52
2018-07-08T00:51:10.178Z,99505.28
2018-07-08T00:53:38.163Z,99503.44
2018-07-08T00:56:05.903Z,99510.79
2018-07-08T00:58:33.620Z,99511.03
2018-07-08T01:01:01.629Z,99509.19
2018-07-08T01:03:29.347Z,99511.27
2018-07-08T01:05:59.067Z,99513.89
2018-07-08T01:08:27.224Z,99514.16
2018-07-08T01:10:55.477Z,99510.44
2018-07-08T01:13:24.141Z,99512.00
2018-07-08T01:16:03.297Z,99514.88
2018-07-08T01:18:34.164Z,99510.39
2018-07-08T01:21:02.547Z,99512.76
2018-07-08T01:23:30.546Z,99516.70
2018-07-08T01:25:58.288Z,99518.50
2018-07-08T01:28:26.013Z,99517.97
2018-07-08T01:30:54.514Z,99523.70
2018-07-08T01:33:22.575Z,99526.30
2018-07-08T01:35:50.301Z,99532.34
2018-07-08T01:38:18.050Z,99537.10
2018-07-08T01:40:45.769Z,99534.19
2018-07-08T01:43:13.793Z,99536.80
2018-07-08T01:45:41.527Z,99537.75
2018-07-08T01:48:09.264Z,99541.93
2018-07-08T01:50:37.303Z,99536.63
2018-07-08T01:53:05.008Z,99533.70
2018-07-08T01:55:32.730Z,99539.45
2018-07-08T01:58:00.747Z,99535.98
2018-07-08T02:00:28.466Z,99531.50
2018-07-08T02:02:56.923Z,99537.03
2018-07-08T02:05:24.647Z,99534.94
2018-07-08T02:07:52.677Z,99531.52
2018-07-08T02:10:23.216Z,99537.84
2018-07-08T02:12:51.582Z,99539.64
2018-07-08T02:15:19.615Z,99538.58
2018-07-08T02:17:47.351Z,99535.95
2018-07-08T02:20:15.599Z,99536.17
2018-07-08T02:22:43.328Z,99537.94
2018-07-08T02:25:11.320Z,99539.19
2018-07-08T02:27:39.027Z,99537.85
2018-07-08T02:30:06.757Z,99546.48
2018-07-08T02:32:34.774Z,99537.45
2018-07-08T02:35:02.522Z,99539.28
2018-07-08T02:37:30.240Z,99543.73
2018-07-08T02:39:58.076Z,99542.64
2018-07-08T02:42:26.095Z,99546.55
2018-07-08T02:44:53.891Z,99544.22
2018-07-08T02:47:21.655Z,99542.61
2018-07-08T02:49:49.863Z,99551.50
2018-07-08T02:52:17.585Z,99554.55
2018-07-08T02:54:45.345Z,99559.47
2018-07-08T02:57:13.350Z,99559.08
2018-07-08T02:59:41.086Z,99560.06
2018-07-08T03:02:08.785Z,99562.96
2018-07-08T03:04:36.786Z,99564.58
2018-07-08T03:07:04.510Z,99563.47
2018-07-08T03:09:32.232Z,99566.52
2018-07-08T03:11:59.949Z,99568.81
2018-07-08T03:14:27.944Z,99559.83
2018-07-08T03:16:55.675Z,99557.47
2018-07-08T03:19:23.406Z,99557.97
2018-07-08T03:21:51.158Z,99558.72
2018-07-08T03:24:19.177Z,99553.70
2018-07-08T03:26:47.605Z,99552.66
2018-07-08T03:29:15.359Z,99554.74
2018-07-08T03:31:43.403Z,99552.83
2018-07-08T03:34:11.162Z,99545.48
2018-07-08T03:36:38.891Z,99543.90
2018-07-08T03:39:06.683Z,99547.03
2018-07-08T03:41:35.005Z,99555.95
2018-07-08T03:44:02.753Z,99555.89
2018-07-08T03:46:30.479Z,99563.47
2018-07-08T03:48:58.223Z,99564.67
2018-07-08T03:51:26.246Z,99567.94
2018-07-08T03:53:54.020Z,99563.89
2018-07-08T03:56:22.559Z,99561.73
2018-07-08T03:58:50.308Z,99567.25
2018-07-08T04:01:18.343Z,99568.09
2018-07-08T04:03:46.072Z,99562.84
2018-07-08T04:06:13.803Z,99565.73
2018-07-08T04:08:41.540Z,99567.79
2018-07-08T04:11:09.729Z,99565.16
2018-07-08T04:13:37.454Z,99564.39
2018-07-08T04:16:06.042Z,99567.79
2018-07-08T04:18:33.780Z,99567.05
2018-07-08T04:21:01.776Z,99567.52
2018-07-08T04:23:29.496Z,99565.94
2018-07-08T04:25:57.251Z,99568.63
2018-07-08T04:28:26.622Z,99568.91
2018-07-08T04:30:54.671Z,99577.05
2018-07-08T04:33:22.403Z,99578.70
2018-07-08T04:35:50.131Z,99580.59
2018-07-08T04:38:17.884Z,99583.05
2018-07-08T04:40:45.919Z,99582.32
2018-07-08T04:43:14.601Z,99581.62
2018-07-08T04:45:42.343Z,99589.87
2018-07-08T04:48:10.058Z,99591.48
2018-07-08T04:50:38.697Z,99586.53
2018-07-08T04:53:06.427Z,99589.50
2018-07-08T04:55:34.139Z,99595.36
2018-07-08T04:58:02.165Z,99588.05
2018-07-08T05:00:29.898Z,99599.16
2018-07-08T05:02:57.628Z,99596.83
2018-07-08T05:05:25.637Z,99597.70
2018-07-08T05:07:53.363Z,99595.61
2018-07-08T05:10:21.079Z,99603.55
2018-07-08T05:12:49.716Z,99607.29
2018-07-08T05:15:17.733Z,99603.14
2018-07-08T05:17:45.467Z,99611.08
2018-07-08T05:20:13.195Z,99604.59
2018-07-08T05:22:40.923Z,99603.61
2018-07-08T05:25:08.946Z,99609.97
2018-07-08T05:27:36.674Z,99613.94
2018-07-08T05:30:04.459Z,99605.83
2018-07-08T05:32:32.210Z,99607.72
2018-07-08T05:35:00.247Z,99609.83
2018-07-08T05:37:27.955Z,99609.83
2018-07-08T05:39:55.687Z,99614.88
2018-07-08T05:42:23.412Z,99616.24
2018-07-08T05:44:51.415Z,99616.80
2018-07-08T05:47:19.150Z,99616.59
2018-07-08T05:49:46.907Z,99621.92
2018-07-08T05:52:14.965Z,99623.02
2018-07-08T05:54:42.701Z,99620.17
2018-07-08T05:57:10.455Z,99623.36
2018-07-08T05:59:38.502Z,99623.91
2018-07-08T06:02:06.242Z,99628.17
2018-07-08T06:04:34.072Z,99628.78
2018-07-08T06:07:01.846Z,99619.04
2018-07-08T06:09:31.018Z,99619.87
2018-07-08T06:11:59.770Z,99614.38
2018-07-08T06:14:29.410Z,99619.13
2018-07-08T06:16:57.461Z,99614.95
2018-07-08T06:19:25.250Z,99613.70
2018-07-08T06:21:53.027Z,99619.25
2018-07-08T06:24:21.926Z,99613.48
2018-07-08T06:26:50.185Z,99621.67
2018-07-08T06:29:18.539Z,99612.45
2018-07-08T06:31:47.545Z,99615.88
2018-07-08T06:34:15.610Z,99614.89
2018-07-08T06:36:43.370Z,99610.97
2018-07-08T06:39:11.136Z,99617.56
2018-07-08T06:41:38.898Z,99608.89
2018-07-08T06:44:07.193Z,99611.28
2018-07-08T06:46:34.957Z,99612.63
2018-07-08T06:49:03.280Z,99612.66
2018-07-08T06:51:31.842Z,99610.06
2018-07-08T06:54:00.004Z,99598.73
2018-07-08T06:56:29.099Z,99603.50
2018-07-08T06:58:56.869Z,99602.75
2018-07-08T07:01:25.014Z,99609.63
2018-07-08T07:03:53.427Z,99614.13
2018-07-08T07:06:21.195Z,99610.75
2018-07-08T07:08:51.930Z,99609.48
2018-07-08T07:11:20.766Z,99610.54
2018-07-08T07:13:49.422Z,99611.63
2018-07-08T07:16:17.617Z,99614.77
2018-07-08T07:18:46.318Z,99610.81
2018-07-08T07:21:15.519Z,99605.30
2018-07-08T07:23:43.808Z,99609.02
2018-07-08T07:26:14.343Z,99606.13
2018-07-08T07:28:47.560Z,99607.17
2018-07-08T07:31:15.724Z,99613.02
2018-07-08T07:33:43.640Z,99611.70
2018-07-08T07:36:11.637Z,99614.60
2018-07-08T07:38:45.302Z,99611.41
2018-07-08T07:41:13.761Z,99615.11
2018-07-08T07:43:42.558Z,99616.18
2018-07-08T07:46:11.492Z,99616.44
2018-07-08T07:51:14.601Z,99623.31
2018-07-08T07:53:42.774Z,99620.94
2018-07-08T07:56:15.110Z,99621.23
2018-07-08T07:58:43.544Z,99627.03
2018-07-08T08:01:12.424Z,99625.48
2018-07-08T08:03:41.632Z,99627.06
2018-07-08T08:06:12.186Z,99624.42
2018-07-08T08:08:40.542Z,99625.74
2018-07-08T08:11:08.284Z,99628.90
2018-07-08T08:13:36.073Z,99624.93
2018-07-08T08:16:07.394Z,99630.47
2018-07-08T08:18:35.171Z,99629.95
2018-07-08T08:21:02.961Z,99624.39
2018-07-08T08:23:32.547Z,99625.14
2018-07-08T08:26:01.357Z,99621.95
2018-07-08T08:28:36.021Z,99627.74
2018-07-08T08:31:07.307Z,99629.05
2018-07-08T08:33:35.894Z,99631.14
2018-07-08T08:36:05.547Z,99627.98
2018-07-08T08:38:34.499Z,99629.27
2018-07-08T08:41:02.248Z,99631.08
2018-07-08T08:43:32.266Z,99632.63
2018-07-08T08:46:00.368Z,99633.43
2018-07-08T08:48:28.100Z,99637.62
2018-07-08T08:50:57.426Z,99636.52
2018-07-08T08:53:25.663Z,99635.16
2018-07-08T08:55:54.288Z,99631.19
2018-07-08T08:58:30.188Z,99633.59
2018-07-08T09:00:57.954Z,99627.78
2018-07-08T09:03:26.384Z,99624.31
2018-07-08T09:06:07.558Z,99630.38
2018-07-08T09:08:36.403Z,99626.63
2018-07-08T09:11:05.389Z,99628.17
2018-07-08T09:13:36.082Z,99627.87
2018-07-08T09:16:04.694Z,99625.45
2018-07-08T09:18:32.765Z,99629.08
2018-07-08T09:21:03.358Z,99640.95
2018-07-08T09:23:31.793Z,99637.98
2018-07-08T09:26:00.450Z,99640.81
2018-07-08T09:28:36.254Z,99636.55
2018-07-08T09:31:04.332Z,99640.20
2018-07-08T09:33:32.277Z,99632.98
2018-07-08T09:36:03.020Z,99641.19
2018-07-08T09:38:31.960Z,99639.81
2018-07-08T09:40:59.808Z,99643.45
2018-07-08T09:43:29.325Z,99647.06
2018-07-08T09:45:59.380Z,99645.89
2018-07-08T09:48:29.098Z,99641.23
2018-07-08T09:50:57.775Z,99655.98
2018-07-08T09:53:25.830Z,99648.41
2018-07-08T09:55:54.267Z,99656.20
2018-07-08T09:58:23.325Z,99652.61
2018-07-08T10:00:52.799Z,99654.86
2018-07-08T10:03:24.691Z,99651.76
2018-07-08T10:05:53.522Z,99644.69
2018-07-08T10:08:21.666Z,99648.81
2018-07-08T10:10:54.450Z,99639.61
2018-07-08T10:13:25.929Z,99641.03
2018-07-08T10:15:58.685Z,99642.75
2018-07-08T10:18:31.802Z,99640.41
2018-07-08T10:21:01.771Z,99642.95
2018-07-08T10:23:29.805Z,99636.50
2018-07-08T10:25:59.055Z,99635.66
2018-07-08T10:28:27.775Z,99627.02
2018-07-08T10:30:58.404Z,99632.16
2018-07-08T10:33:30.596Z,99630.41
2018-07-08T10:36:07.228Z,99627.55
2018-07-08T10:38:36.240Z,99631.21
2018-07-08T10:41:06.405Z,99633.78
2018-07-08T10:43:36.222Z,99625.12
2018-07-08T10:46:05.080Z,99618.55
2018-07-08T10:48:34.986Z,99619.83
2018-07-08T10:51:02.790Z,99622.98
2018-07-08T10:53:32.607Z,99624.39
2018-07-08T10:56:02.206Z,99625.09
2018-07-08T10:58:31.651Z,99625.33
2018-07-08T11:01:05.594Z,99624.80
2018-07-08T11:03:33.649Z,99617.34
2018-07-08T11:06:06.234Z,99622.22
2018-07-08T11:11:19.143Z,99624.77
2018-07-08T11:13:47.457Z,99624.95
2018-07-08T11:16:19.293Z,99629.81
2018-07-08T11:18:49.841Z,99626.70
2018-07-08T11:21:19.417Z,99615.70
2018-07-08T11:23:49.819Z,99618.99
2018-07-08T11:26:18.206Z,99623.35
2018-07-08T11:28:50.262Z,99617.25
2018-07-08T11:31:19.596Z,99622.94
2018-07-08T11:33:50.417Z,99613.61
2018-07-08T11:36:19.227Z,99613.96
2018-07-08T11:38:50.147Z,99613.48
2018-07-08T11:44:02.687Z,99606.58
2018-07-08T11:46:30.909Z,99594.20
2018-07-08T11:49:00.292Z,99600.52
2018-07-08T11:51:30.955Z,99592.91
2018-07-08T11:53:58.714Z,99598.52
2018-07-08T11:56:27.560Z,99593.88
2018-07-08T11:59:01.523Z,99585.72
2018-07-08T12:01:30.278Z,99590.43
2018-07-08T12:03:59.718Z,99589.11
2018-07-08T12:06:30.585Z,99593.99
2018-07-08T12:09:03.252Z,99587.75
2018-07-08T12:11:32.238Z,99591.31
2018-07-08T12:14:04.153Z,99591.23
2018-07-08T12:16:31.882Z,99590.02
2018-07-08T12:19:02.401Z,99590.01
2018-07-08T12:21:31.538Z,99590.73
2018-07-08T12:24:01.232Z,99589.24
2018-07-08T12:26:29.965Z,99597.64
2018-07-08T12:28:57.737Z,99592.38
2018-07-08T12:31:25.534Z,99591.20
2018-07-08T12:33:54.407Z,99585.08
2018-07-08T12:36:23.752Z,99581.30
2018-07-08T12:38:51.515Z,99583.66
2018-07-08T12:41:22.794Z,99583.25
2018-07-08T12:43:53.000Z,99573.16
2018-07-08T12:46:23.428Z,99578.28
2018-07-08T12:48:55.980Z,99580.23
2018-07-08T12:51:25.092Z,99584.16
2018-07-08T12:53:53.732Z,99586.84
2018-07-08T12:56:22.737Z,99578.45
2018-07-08T12:58:53.387Z,99566.47
2018-07-08T13:01:21.333Z,99569.80
2018-07-08T13:03:50.965Z,99568.45
2018-07-08T13:06:19.388Z,99570.77
2018-07-08T13:08:47.439Z,99562.22
2018-07-08T13:11:16.441Z,99559.70
2018-07-08T13:13:46.388Z,99565.47
2018-07-08T13:16:15.775Z,99561.99
2018-07-08T13:18:44.623Z,99565.20
2018-07-08T13:21:13.163Z,99566.58
2018-07-08T13:23:41.448Z,99562.71
2018-07-08T13:26:10.444Z,99563.48
2018-07-08T13:28:40.229Z,99558.89
2018-07-08T13:31:08.599Z,99560.67
2018-07-08T13:36:12.642Z,99561.10
2018-07-08T13:38:41.863Z,99565.87
2018-07-08T13:41:10.706Z,99559.41
2018-07-08T13:43:39.111Z,99554.05
2018-07-08T13:46:12.330Z,99552.05
2018-07-08T13:48:45.689Z,99551.64
2018-07-08T13:51:13.472Z,99552.33
2018-07-08T13:53:44.787Z,99563.29
2018-07-08T13:56:14.716Z,99554.79
2018-07-08T13:58:43.275Z,99560.95
2018-07-08T14:01:12.974Z,99551.66
2018-07-08T14:03:41.868Z,99549.84
2018-07-08T14:06:17.123Z,99549.39
2018-07-08T14:08:45.423Z,99546.94
2018-07-08T14:11:14.521Z,99547.70
2018-07-08T14:13:43.312Z,99536.63
2018-07-08T14:16:12.503Z,99536.06
2018-07-08T14:18:43.290Z,99535.28
2018-07-08T14:21:11.933Z,99547.27
2018-07-08T14:23:39.708Z,99542.66
2018-07-08T14:26:09.530Z,99538.84
2018-07-08T14:28:37.282Z,99542.07
2018-07-08T14:31:05.116Z,99535.55
2018-07-08T14:33:34.442Z,99535.39
2018-07-08T14:36:02.307Z,99536.86
2018-07-08T14:38:32.380Z,99536.28
2018-07-08T14:41:06.523Z,99533.02
2018-07-08T14:43:34.653Z,99534.95
2018-07-08T14:46:03.998Z,99533.99
2018-07-08T14:48:33.529Z,99531.97
2018-07-08T14:51:03.394Z,99528.41
2018-07-08T14:53:31.751Z,99525.04
2018-07-08T14:56:03.400Z,99527.88
2018-07-08T14:58:32.675Z,99520.14
2018-07-08T15:01:00.519Z,99516.48
2018-07-08T15:03:31.281Z,99516.03
2018-07-08T15:06:00.283Z,99519.95
2018-07-08T15:08:28.034Z,99515.80
2018-07-08T15:10:59.973Z,99517.14
2018-07-08T15:13:28.747Z,99519.02
2018-07-08T15:15:57.489Z,99511.70
2018-07-08T15:18:25.761Z,99512.78
2018-07-08T15:20:54.009Z,99503.30
2018-07-08T15:23:24.544Z,99508.13
2018-07-08T15:25:52.765Z,99493.52
2018-07-08T15:28:21.440Z,99498.98
2018-07-08T15:33:27.433Z,99502.22
2018-07-08T15:35:55.230Z,99497.25
2018-07-08T15:38:23.381Z,99492.16
2018-07-08T15:40:51.277Z,99494.94
2018-07-08T15:43:22.451Z,99497.40
2018-07-08T15:45:53.994Z,99491.80
2018-07-08T15:48:24.265Z,99492.50
2018-07-08T15:50:52.823Z,99502.48
2018-07-08T15:53:22.823Z,99492.00
2018-07-08T15:55:50.738Z,99493.34
2018-07-08T15:58:19.243Z,99490.86
2018-07-08T16:00:47.857Z,99494.60
2018-07-08T16:03:17.216Z,99491.66
2018-07-08T16:05:45.259Z,99490.47
2018-07-08T16:08:17.381Z,99490.81
2018-07-08T16:10:46.384Z,99494.34
2018-07-08T16:13:16.671Z,99489.72
2018-07-08T16:15:44.475Z,99486.27
2018-07-08T16:18:15.180Z,99491.20
2018-07-08T16:20:43.578Z,99481.73
2018-07-08T16:23:11.951Z,99488.21
2018-07-08T16:25:39.697Z,99482.16
2018-07-08T16:28:09.143Z,99483.04
2018-07-08T16:30:38.496Z,99479.09
2018-07-08T16:33:07.760Z,99478.80
2018-07-08T16:35:35.798Z,99475.30
2018-07-08T16:38:06.477Z,99476.95
2018-07-08T16:40:35.110Z,99477.11
2018-07-08T16:45:36.606Z,99470.27
2018-07-08T16:48:06.475Z,99469.71
2018-07-08T16:50:39.412Z,99470.52
2018-07-08T16:53:08.637Z,99470.34
2018-07-08T16:55:37.843Z,99474.41
2018-07-08T16:58:07.736Z,99465.68
2018-07-08T17:00:37.856Z,99470.39
2018-07-08T17:03:05.620Z,99473.53
2018-07-08T17:05:36.734Z,99468.62
2018-07-08T17:08:11.566Z,99470.84
2018-07-08T17:13:13.741Z,99474.97
2018-07-08T17:15:47.310Z,99468.70
2018-07-08T17:18:16.498Z,99470.54
2018-07-08T17:20:44.677Z,99467.63
2018-07-08T17:23:13.335Z,99470.67
2018-07-08T17:28:24.705Z,99469.03
2018-07-08T17:30:52.818Z,99467.92
2018-07-08T17:33:23.640Z,99464.11
2018-07-08T17:35:55.573Z,99462.42
2018-07-08T17:38:23.329Z,99461.89
2018-07-08T17:40:52.295Z,99455.75
2018-07-08T17:43:20.084Z,99458.23
2018-07-08T17:45:48.632Z,99466.16
2018-07-08T17:48:19.597Z,99455.05
2018-07-08T17:50:49.224Z,99460.92
2018-07-08T17:53:18.547Z,99453.16
2018-07-08T17:55:47.310Z,99460.98
2018-07-08T17:58:40.542Z,99463.57
2018-07-08T18:01:09.467Z,99457.74
2018-07-08T18:03:37.482Z,99458.75
2018-07-08T18:06:06.352Z,99456.61
2018-07-08T18:08:36.298Z,99458.50
2018-07-08T18:11:09.560Z,99459.70
2018-07-08T18:13:37.371Z,99466.40
2018-07-08T18:16:05.169Z,99466.59
2018-07-08T18:18:36.978Z,99465.78
2018-07-08T18:21:04.759Z,99467.08
2018-07-08T18:23:33.015Z,99462.73
2018-07-08T18:26:02.230Z,99472.98
2018-07-08T18:28:35.267Z,99465.91
2018-07-08T18:31:03.822Z,99466.46
2018-07-08T18:33:35.957Z,99462.86
2018-07-08T18:36:03.779Z,99460.80
2018-07-08T18:38:34.636Z,99462.59
2018-07-08T18:41:04.894Z,99462.10
2018-07-08T18:43:35.129Z,99464.06
2018-07-08T18:46:03.555Z,99458.55
2018-07-08T18:48:32.338Z,99460.42
2018-07-08T18:51:01.815Z,99460.56
2018-07-08T18:53:30.888Z,99461.15
2018-07-08T18:55:59.815Z,99458.83
2018-07-08T18:58:29.868Z,99456.88
2018-07-08T19:00:57.992Z,99451.42
2018-07-08T19:03:27.704Z,99461.13
2018-07-08T19:05:56.387Z,99463.36
2018-07-08T19:08:25.416Z,99459.69
2018-07-08T19:10:55.589Z,99462.31
2018-07-08T19:13:24.591Z,99463.36
2018-07-08T19:15:54.731Z,99464.17
2018-07-08T19:18:23.469Z,99462.05
2018-07-08T19:20:51.218Z,99460.41
2018-07-08T19:23:20.806Z,99462.36
2018-07-08T19:25:50.538Z,99464.56
2018-07-08T19:28:19.911Z,99465.19
2018-07-08T19:30:50.915Z,99471.14
2018-07-08T19:33:22.112Z,99472.02
2018-07-08T19:35:53.479Z,99475.71
2018-07-08T19:38:21.470Z,99469.27
2018-07-08T19:40:50.843Z,99473.92
2018-07-08T19:43:19.637Z,99469.22
2018-07-08T19:45:47.454Z,99465.52
2018-07-08T19:48:16.337Z,99477.83
2018-07-08T19:50:45.624Z,99478.77
2018-07-08T19:53:14.563Z,99480.72
2018-07-08T19:55:42.647Z,99475.59
2018-07-08T19:58:11.383Z,99480.05
2018-07-08T20:00:39.900Z,99479.78
2018-07-08T20:03:09.523Z,99477.70
2018-07-08T20:05:38.462Z,99479.80
2018-07-08T20:08:07.388Z,99483.17
2018-07-08T20:10:36.187Z,99478.37
2018-07-08T20:13:05.009Z,99476.43
2018-07-08T20:15:33.736Z,99480.63
2018-07-08T20:18:07.263Z,99482.45
2018-07-08T20:20:35.807Z,99481.30
2018-07-08T20:23:05.044Z,99492.09
2018-07-08T20:25:33.834Z,99491.73
2018-07-08T20:28:02.212Z,99485.64
2018-07-08T20:30:32.228Z,99485.11
2018-07-08T20:33:00.561Z,99486.67
2018-07-08T20:35:28.403Z,99492.52
2018-07-08T20:37:57.095Z,99489.55
2018-07-08T20:40:25.143Z,99491.95
2018-07-08T20:42:55.322Z,99493.16
2018-07-08T20:45:23.682Z,99492.05
2018-07-08T20:50:33.767Z,99495.20
2018-07-08T20:53:06.600Z,99495.16
2018-07-08T20:55:42.420Z,99489.47
2018-07-08T20:58:11.254Z,99491.55
2018-07-08T21:00:39.802Z,99493.02
2018-07-08T21:03:07.906Z,99494.20
2018-07-08T21:05:36.555Z,99495.62
2018-07-08T21:08:05.670Z,99492.56
2018-07-08T21:10:35.269Z,99494.55
2018-07-08T21:13:07.572Z,99492.86
2018-07-08T21:15:37.291Z,99499.86
2018-07-08T21:18:07.047Z,99504.50
2018-07-08T21:20:35.586Z,99502.27
2018-07-08T21:23:03.331Z,99501.38
2018-07-08T21:25:32.334Z,99495.97
2018-07-08T21:28:00.704Z,99497.93
2018-07-08T21:30:29.416Z,99498.00
2018-07-08T21:32:57.416Z,99503.97
2018-07-08T21:35:25.191Z,99506.75
2018-07-08T21:37:53.364Z,99505.80
2018-07-08T21:40:21.662Z,99508.02
2018-07-08T21:42:49.694Z,99512.30
2018-07-08T21:45:19.669Z,99511.04
2018-07-08T21:47:50.522Z,99510.82
2018-07-08T21:50:39.400Z,99512.48
2018-07-08T21:53:09.127Z,99511.80
2018-07-08T21:55:36.877Z,99520.07
2018-07-08T21:58:05.965Z,99510.10
2018-07-08T22:00:34.438Z,99515.95
2018-07-08T22:03:03.256Z,99514.70
2018-07-08T22:05:31.948Z,99514.23
2018-07-08T22:08:03.819Z,99519.88
2018-07-08T22:10:32.209Z,99520.47
2018-07-08T22:13:01.184Z,99514.71
2018-07-08T22:15:29.203Z,99515.00
2018-07-08T22:17:57.295Z,99516.65
2018-07-08T22:20:25.118Z,99514.77
2018-07-08T22:22:54.083Z,99520.10
2018-07-08T22:25:22.736Z,99518.84
2018-07-08T22:27:54.666Z,99515.73
2018-07-08T22:30:26.326Z,99527.69
2018-07-08T22:32:55.198Z,99517.41
2018-07-08T22:35:23.258Z,99520.11
2018-07-08T22:37:52.966Z,99519.65
2018-07-08T22:40:21.515Z,99522.84
2018-07-08T22:42:51.100Z,99522.11
2018-07-08T22:45:20.469Z,99524.26
2018-07-08T22:47:48.518Z,99524.00
2018-07-08T22:50:16.620Z,99525.09
2018-07-08T22:52:44.361Z,99523.27
2018-07-08T22:55:12.838Z,99521.39
2018-07-08T22:57:41.727Z,99526.98
2018-07-08T23:00:09.449Z,99524.11
2018-07-08T23:02:38.506Z,99527.03
2018-07-08T23:05:07.253Z,99522.28
2018-07-08T23:07:34.986Z,99521.78
2018-07-08T23:10:02.711Z,99525.51
2018-07-08T23:12:30.903Z,99528.69
2018-07-08T23:14:58.724Z,99526.59
2018-07-08T23:17:26.673Z,99523.97
2018-07-08T23:19:55.327Z,99523.97
2018-07-08T23:22:25.712Z,99529.78
2018-07-08T23:24:53.445Z,99528.73
2018-07-08T23:27:22.380Z,99527.70
2018-07-08T23:29:50.118Z,99532.72
2018-07-08T23:32:17.855Z,99531.95
2018-07-08T23:34:46.030Z,99530.91
2018-07-08T23:37:13.804Z,99530.13
2018-07-08T23:39:41.546Z,99538.58
2018-07-08T23:42:09.599Z,99536.20
2018-07-08T23:44:38.300Z,99538.03
2018-07-08T23:47:06.038Z,99531.70
2018-07-08T23:49:34.066Z,99528.25
2018-07-08T23:52:01.793Z,99527.23
2018-07-08T23:54:29.536Z,99529.06
2018-07-08T23:56:57.260Z,99527.48
2018-07-08T23:59:25.520Z,99522.20
